sensor_id;sensor_type;location;lat;lon;timestamp;temperature;humidity
62464;SHT31;48512;48.552;9.380;2022-10-31T00:00:59;11.43;82.46
62464;SHT31;48512;48.552;9.380;2022-10-31T00:03:24;11.34;83.01
62464;SHT31;48512;48.552;9.380;2022-10-31T00:05:51;11.24;83.37
62464;SHT31;48512;48.552;9.380;2022-10-31T00:08:16;11.24;83.40
62464;SHT31;48512;48.552;9.380;2022-10-31T00:10:42;11.25;83.22
62464;SHT31;48512;48.552;9.380;2022-10-31T00:13:09;11.25;83.25
62464;SHT31;48512;48.552;9.380;2022-10-31T00:15:35;11.19;83.65
62464;SHT31;48512;48.552;9.380;2022-10-31T00:18:00;11.22;84.13
62464;SHT31;48512;48.552;9.380;2022-10-31T00:20:26;11.08;84.85
62464;SHT31;48512;48.552;9.380;2022-10-31T00:22:51;11.19;85.31
62464;SHT31;48512;48.552;9.380;2022-10-31T00:25:16;11.25;85.09
62464;SHT31;48512;48.552;9.380;2022-10-31T00:27:41;11.28;85.42
62464;SHT31;48512;48.552;9.380;2022-10-31T00:30:07;11.31;85.13
62464;SHT31;48512;48.552;9.380;2022-10-31T00:32:32;11.29;84.99
62464;SHT31;48512;48.552;9.380;2022-10-31T00:34:57;11.19;85.47
62464;SHT31;48512;48.552;9.380;2022-10-31T00:37:23;11.14;85.54
62464;SHT31;48512;48.552;9.380;2022-10-31T00:39:48;11.19;85.62
62464;SHT31;48512;48.552;9.380;2022-10-31T00:42:14;11.19;85.59
62464;SHT31;48512;48.552;9.380;2022-10-31T00:44:39;11.21;85.57
62464;SHT31;48512;48.552;9.380;2022-10-31T00:47:05;11.24;85.61
62464;SHT31;48512;48.552;9.380;2022-10-31T00:49:30;11.19;85.84
62464;SHT31;48512;48.552;9.380;2022-10-31T00:51:55;11.15;86.47
62464;SHT31;48512;48.552;9.380;2022-10-31T00:54:21;11.17;86.39
62464;SHT31;48512;48.552;9.380;2022-10-31T00:56:46;11.21;86.65
62464;SHT31;48512;48.552;9.380;2022-10-31T00:59:11;11.34;86.41
62464;SHT31;48512;48.552;9.380;2022-10-31T01:01:36;11.32;86.90
62464;SHT31;48512;48.552;9.380;2022-10-31T01:04:02;11.43;86.42
62464;SHT31;48512;48.552;9.380;2022-10-31T01:06:27;11.56;85.79
62464;SHT31;48512;48.552;9.380;2022-10-31T01:08:52;11.43;85.86
62464;SHT31;48512;48.552;9.380;2022-10-31T01:11:19;11.48;85.62
62464;SHT31;48512;48.552;9.380;2022-10-31T01:13:44;11.51;85.33
62464;SHT31;48512;48.552;9.380;2022-10-31T01:16:10;11.54;85.12
62464;SHT31;48512;48.552;9.380;2022-10-31T01:18:36;11.59;84.94
62464;SHT31;48512;48.552;9.380;2022-10-31T01:23:30;11.49;85.35
62464;SHT31;48512;48.552;9.380;2022-10-31T01:26:01;11.38;85.79
62464;SHT31;48512;48.552;9.380;2022-10-31T01:28:26;11.28;85.85
62464;SHT31;48512;48.552;9.380;2022-10-31T01:30:51;11.38;85.54
62464;SHT31;48512;48.552;9.380;2022-10-31T01:33:17;11.29;85.45
62464;SHT31;48512;48.552;9.380;2022-10-31T01:35:42;11.29;85.42
62464;SHT31;48512;48.552;9.380;2022-10-31T01:38:07;11.27;85.59
62464;SHT31;48512;48.552;9.380;2022-10-31T01:40:33;11.25;85.54
62464;SHT31;48512;48.552;9.380;2022-10-31T01:42:58;11.15;85.61
62464;SHT31;48512;48.552;9.380;2022-10-31T01:45:23;11.14;85.57
62464;SHT31;48512;48.552;9.380;2022-10-31T01:47:49;11.18;85.21
62464;SHT31;48512;48.552;9.380;2022-10-31T01:50:26;11.10;85.41
62464;SHT31;48512;48.552;9.380;2022-10-31T01:52:53;10.93;85.96
62464;SHT31;48512;48.552;9.380;2022-10-31T01:55:26;10.90;86.20
62464;SHT31;48512;48.552;9.380;2022-10-31T01:57:53;10.80;86.06
62464;SHT31;48512;48.552;9.380;2022-10-31T02:00:20;10.79;85.80
62464;SHT31;48512;48.552;9.380;2022-10-31T02:02:45;10.83;85.65
62464;SHT31;48512;48.552;9.380;2022-10-31T02:05:17;10.90;85.22
62464;SHT31;48512;48.552;9.380;2022-10-31T02:10:29;10.74;85.91
62464;SHT31;48512;48.552;9.380;2022-10-31T02:12:56;10.76;85.96
62464;SHT31;48512;48.552;9.380;2022-10-31T02:15:23;10.76;86.00
62464;SHT31;48512;48.552;9.380;2022-10-31T02:17:48;10.69;86.06
62464;SHT31;48512;48.552;9.380;2022-10-31T02:20:15;10.79;85.73
62464;SHT31;48512;48.552;9.380;2022-10-31T02:36:11;10.41;86.34
62464;SHT31;48512;48.552;9.380;2022-10-31T02:43:32;10.28;86.48
62464;SHT31;48512;48.552;9.380;2022-10-31T02:46:05;10.38;86.61
62464;SHT31;48512;48.552;9.380;2022-10-31T02:48:33;10.33;86.58
62464;SHT31;48512;48.552;9.380;2022-10-31T02:51:00;10.32;86.74
62464;SHT31;48512;48.552;9.380;2022-10-31T02:53:27;10.32;86.58
62464;SHT31;48512;48.552;9.380;2022-10-31T02:55:58;10.31;86.77
62464;SHT31;48512;48.552;9.380;2022-10-31T02:58:24;10.25;86.73
62464;SHT31;48512;48.552;9.380;2022-10-31T03:08:28;10.21;86.19
62464;SHT31;48512;48.552;9.380;2022-10-31T03:10:56;10.14;86.06
62464;SHT31;48512;48.552;9.380;2022-10-31T03:13:56;10.16;85.93
62464;SHT31;48512;48.552;9.380;2022-10-31T03:16:16;10.12;86.17
62464;SHT31;48512;48.552;9.380;2022-10-31T03:18:43;10.14;86.01
62464;SHT31;48512;48.552;9.380;2022-10-31T03:23:37;10.14;86.24
62464;SHT31;48512;48.552;9.380;2022-10-31T03:26:03;10.14;86.38
62464;SHT31;48512;48.552;9.380;2022-10-31T03:28:30;10.09;86.55
62464;SHT31;48512;48.552;9.380;2022-10-31T03:30:59;10.11;86.48
62464;SHT31;48512;48.552;9.380;2022-10-31T03:33:27;10.14;86.46
62464;SHT31;48512;48.552;9.380;2022-10-31T03:35:54;10.25;86.18
62464;SHT31;48512;48.552;9.380;2022-10-31T03:38:20;10.16;86.26
62464;SHT31;48512;48.552;9.380;2022-10-31T03:40:46;10.01;86.61
62464;SHT31;48512;48.552;9.380;2022-10-31T03:43:15;9.85;86.67
62464;SHT31;48512;48.552;9.380;2022-10-31T03:45:43;9.83;86.73
62464;SHT31;48512;48.552;9.380;2022-10-31T03:48:09;9.91;86.29
62464;SHT31;48512;48.552;9.380;2022-10-31T03:50:38;9.88;86.27
62464;SHT31;48512;48.552;9.380;2022-10-31T03:53:06;9.88;85.95
62464;SHT31;48512;48.552;9.380;2022-10-31T03:55:39;9.87;85.93
62464;SHT31;48512;48.552;9.380;2022-10-31T03:58:09;9.78;86.34
62464;SHT31;48512;48.552;9.380;2022-10-31T04:00:36;9.81;86.34
62464;SHT31;48512;48.552;9.380;2022-10-31T04:03:10;9.83;86.74
62464;SHT31;48512;48.552;9.380;2022-10-31T04:05:36;9.88;86.74
62464;SHT31;48512;48.552;9.380;2022-10-31T04:08:03;9.83;86.86
62464;SHT31;48512;48.552;9.380;2022-10-31T04:10:29;9.81;86.86
62464;SHT31;48512;48.552;9.380;2022-10-31T04:12:57;9.73;86.96
62464;SHT31;48512;48.552;9.380;2022-10-31T04:15:24;9.74;86.80
62464;SHT31;48512;48.552;9.380;2022-10-31T04:17:52;9.67;86.76
62464;SHT31;48512;48.552;9.380;2022-10-31T04:20:18;9.61;86.81
62464;SHT31;48512;48.552;9.380;2022-10-31T04:22:43;9.70;86.67
62464;SHT31;48512;48.552;9.380;2022-10-31T04:25:09;9.69;86.64
62464;SHT31;48512;48.552;9.380;2022-10-31T04:27:34;9.63;86.91
62464;SHT31;48512;48.552;9.380;2022-10-31T04:29:59;9.54;86.94
62464;SHT31;48512;48.552;9.380;2022-10-31T04:32:25;9.54;86.76
62464;SHT31;48512;48.552;9.380;2022-10-31T04:34:51;9.56;86.80
62464;SHT31;48512;48.552;9.380;2022-10-31T04:37:16;9.69;86.36
62464;SHT31;48512;48.552;9.380;2022-10-31T04:39:41;9.67;86.45
62464;SHT31;48512;48.552;9.380;2022-10-31T04:42:06;9.61;86.87
62464;SHT31;48512;48.552;9.380;2022-10-31T04:44:32;9.56;86.97
62464;SHT31;48512;48.552;9.380;2022-10-31T04:46:57;9.43;87.19
62464;SHT31;48512;48.552;9.380;2022-10-31T04:49:22;9.32;87.06
62464;SHT31;48512;48.552;9.380;2022-10-31T04:51:47;9.33;86.93
62464;SHT31;48512;48.552;9.380;2022-10-31T04:54:13;9.28;87.18
62464;SHT31;48512;48.552;9.380;2022-10-31T04:56:38;9.26;87.45
62464;SHT31;48512;48.552;9.380;2022-10-31T04:59:03;9.35;87.16
62464;SHT31;48512;48.552;9.380;2022-10-31T05:01:28;9.26;87.35
62464;SHT31;48512;48.552;9.380;2022-10-31T05:03:54;9.29;87.36
62464;SHT31;48512;48.552;9.380;2022-10-31T05:06:19;9.26;87.11
62464;SHT31;48512;48.552;9.380;2022-10-31T05:08:44;9.18;87.61
62464;SHT31;48512;48.552;9.380;2022-10-31T05:11:10;9.14;87.92
62464;SHT31;48512;48.552;9.380;2022-10-31T05:13:36;9.11;88.34
62464;SHT31;48512;48.552;9.380;2022-10-31T05:16:01;9.18;88.15
62464;SHT31;48512;48.552;9.380;2022-10-31T05:18:26;9.05;88.54
62464;SHT31;48512;48.552;9.380;2022-10-31T05:20:51;8.98;88.43
62464;SHT31;48512;48.552;9.380;2022-10-31T05:23:17;9.04;88.30
62464;SHT31;48512;48.552;9.380;2022-10-31T05:25:42;9.15;88.02
62464;SHT31;48512;48.552;9.380;2022-10-31T05:28:07;9.07;88.52
62464;SHT31;48512;48.552;9.380;2022-10-31T05:30:33;9.16;88.47
62464;SHT31;48512;48.552;9.380;2022-10-31T05:32:59;9.25;88.29
62464;SHT31;48512;48.552;9.380;2022-10-31T05:35:29;9.35;88.02
62464;SHT31;48512;48.552;9.380;2022-10-31T05:37:54;9.29;88.24
62464;SHT31;48512;48.552;9.380;2022-10-31T05:40:20;9.22;88.35
62464;SHT31;48512;48.552;9.380;2022-10-31T05:42:46;9.22;88.18
62464;SHT31;48512;48.552;9.380;2022-10-31T05:45:12;9.23;88.18
62464;SHT31;48512;48.552;9.380;2022-10-31T05:47:38;9.18;88.13
62464;SHT31;48512;48.552;9.380;2022-10-31T05:50:04;9.36;87.39
62464;SHT31;48512;48.552;9.380;2022-10-31T05:52:29;9.22;87.62
62464;SHT31;48512;48.552;9.380;2022-10-31T05:54:54;9.25;87.42
62464;SHT31;48512;48.552;9.380;2022-10-31T05:57:20;9.28;87.44
62464;SHT31;48512;48.552;9.380;2022-10-31T05:59:45;9.29;87.17
62464;SHT31;48512;48.552;9.380;2022-10-31T06:02:10;9.22;87.50
62464;SHT31;48512;48.552;9.380;2022-10-31T06:04:35;9.22;87.60
62464;SHT31;48512;48.552;9.380;2022-10-31T06:07:01;9.11;87.89
62464;SHT31;48512;48.552;9.380;2022-10-31T06:09:26;9.02;88.23
62464;SHT31;48512;48.552;9.380;2022-10-31T06:11:51;8.87;88.27
62464;SHT31;48512;48.552;9.380;2022-10-31T06:14:16;8.75;88.58
62464;SHT31;48512;48.552;9.380;2022-10-31T06:16:42;8.80;88.44
62464;SHT31;48512;48.552;9.380;2022-10-31T06:19:07;8.93;87.88
62464;SHT31;48512;48.552;9.380;2022-10-31T06:21:32;8.89;87.82
62464;SHT31;48512;48.552;9.380;2022-10-31T06:23:57;8.81;87.97
62464;SHT31;48512;48.552;9.380;2022-10-31T06:26:23;8.74;88.42
62464;SHT31;48512;48.552;9.380;2022-10-31T06:28:48;8.91;87.90
62464;SHT31;48512;48.552;9.380;2022-10-31T06:31:13;9.01;87.85
62464;SHT31;48512;48.552;9.380;2022-10-31T06:33:40;9.08;87.86
62464;SHT31;48512;48.552;9.380;2022-10-31T06:36:05;8.99;88.14
62464;SHT31;48512;48.552;9.380;2022-10-31T06:38:31;8.97;88.32
62464;SHT31;48512;48.552;9.380;2022-10-31T06:40:56;8.98;88.25
62464;SHT31;48512;48.552;9.380;2022-10-31T06:43:21;8.97;88.17
62464;SHT31;48512;48.552;9.380;2022-10-31T06:45:47;9.08;88.63
62464;SHT31;48512;48.552;9.380;2022-10-31T06:48:12;9.28;88.84
62464;SHT31;48512;48.552;9.380;2022-10-31T06:50:37;9.20;88.05
62464;SHT31;48512;48.552;9.380;2022-10-31T06:53:03;9.22;88.24
62464;SHT31;48512;48.552;9.380;2022-10-31T06:55:28;9.35;87.94
62464;SHT31;48512;48.552;9.380;2022-10-31T06:57:56;9.39;88.22
62464;SHT31;48512;48.552;9.380;2022-10-31T07:00:22;9.46;88.31
62464;SHT31;48512;48.552;9.380;2022-10-31T07:02:54;9.47;88.53
62464;SHT31;48512;48.552;9.380;2022-10-31T07:05:20;9.47;88.90
62464;SHT31;48512;48.552;9.380;2022-10-31T07:07:45;9.56;88.56
62464;SHT31;48512;48.552;9.380;2022-10-31T07:10:11;9.73;88.08
62464;SHT31;48512;48.552;9.380;2022-10-31T07:12:36;9.87;87.38
62464;SHT31;48512;48.552;9.380;2022-10-31T07:15:01;10.01;87.07
62464;SHT31;48512;48.552;9.380;2022-10-31T07:17:27;9.95;87.51
62464;SHT31;48512;48.552;9.380;2022-10-31T07:19:52;9.87;88.05
62464;SHT31;48512;48.552;9.380;2022-10-31T07:22:17;9.91;88.32
62464;SHT31;48512;48.552;9.380;2022-10-31T07:24:42;9.90;88.47
62464;SHT31;48512;48.552;9.380;2022-10-31T07:27:08;9.98;88.47
62464;SHT31;48512;48.552;9.380;2022-10-31T07:29:33;10.16;87.95
62464;SHT31;48512;48.552;9.380;2022-10-31T07:31:58;10.33;87.94
62464;SHT31;48512;48.552;9.380;2022-10-31T07:34:23;10.38;87.99
62464;SHT31;48512;48.552;9.380;2022-10-31T07:36:50;10.42;88.53
62464;SHT31;48512;48.552;9.380;2022-10-31T07:39:15;10.49;88.63
62464;SHT31;48512;48.552;9.380;2022-10-31T07:41:41;10.62;88.62
62464;SHT31;48512;48.552;9.380;2022-10-31T07:44:06;10.73;88.70
62464;SHT31;48512;48.552;9.380;2022-10-31T07:46:31;10.89;88.72
62464;SHT31;48512;48.552;9.380;2022-10-31T07:48:57;11.06;88.58
62464;SHT31;48512;48.552;9.380;2022-10-31T07:51:22;11.14;88.42
62464;SHT31;48512;48.552;9.380;2022-10-31T07:53:49;11.25;88.19
62464;SHT31;48512;48.552;9.380;2022-10-31T07:56:14;11.29;87.90
62464;SHT31;48512;48.552;9.380;2022-10-31T07:58:39;11.40;87.46
62464;SHT31;48512;48.552;9.380;2022-10-31T08:01:04;11.61;87.20
62464;SHT31;48512;48.552;9.380;2022-10-31T08:03:30;11.70;87.40
62464;SHT31;48512;48.552;9.380;2022-10-31T08:05:56;11.80;87.36
62464;SHT31;48512;48.552;9.380;2022-10-31T08:08:22;11.91;87.30
62464;SHT31;48512;48.552;9.380;2022-10-31T08:10:49;12.10;86.55
62464;SHT31;48512;48.552;9.380;2022-10-31T08:13:14;12.27;85.84
62464;SHT31;48512;48.552;9.380;2022-10-31T08:15:39;12.44;85.32
62464;SHT31;48512;48.552;9.380;2022-10-31T08:18:07;12.58;84.79
62464;SHT31;48512;48.552;9.380;2022-10-31T08:20:34;12.72;84.42
62464;SHT31;48512;48.552;9.380;2022-10-31T08:23:00;12.90;84.14
62464;SHT31;48512;48.552;9.380;2022-10-31T08:25:28;13.03;84.09
62464;SHT31;48512;48.552;9.380;2022-10-31T08:27:53;13.16;83.84
62464;SHT31;48512;48.552;9.380;2022-10-31T08:30:20;13.31;83.13
62464;SHT31;48512;48.552;9.380;2022-10-31T08:32:45;13.47;82.33
62464;SHT31;48512;48.552;9.380;2022-10-31T08:35:11;13.62;81.59
62464;SHT31;48512;48.552;9.380;2022-10-31T08:37:36;13.65;81.43
62464;SHT31;48512;48.552;9.380;2022-10-31T08:40:01;13.76;80.88
62464;SHT31;48512;48.552;9.380;2022-10-31T08:42:27;13.90;80.31
62464;SHT31;48512;48.552;9.380;2022-10-31T08:44:52;13.85;80.08
62464;SHT31;48512;48.552;9.380;2022-10-31T08:47:17;14.02;80.01
62464;SHT31;48512;48.552;9.380;2022-10-31T08:49:42;13.99;80.21
62464;SHT31;48512;48.552;9.380;2022-10-31T08:52:08;14.03;80.09
62464;SHT31;48512;48.552;9.380;2022-10-31T08:54:33;14.17;80.25
62464;SHT31;48512;48.552;9.380;2022-10-31T08:56:59;14.29;79.97
62464;SHT31;48512;48.552;9.380;2022-10-31T08:59:24;14.34;79.84
62464;SHT31;48512;48.552;9.380;2022-10-31T09:01:49;14.40;79.73
62464;SHT31;48512;48.552;9.380;2022-10-31T09:04:14;14.50;79.73
62464;SHT31;48512;48.552;9.380;2022-10-31T09:06:40;14.52;79.93
62464;SHT31;48512;48.552;9.380;2022-10-31T09:09:05;14.64;79.84
62464;SHT31;48512;48.552;9.380;2022-10-31T09:11:30;14.67;79.56
62464;SHT31;48512;48.552;9.380;2022-10-31T09:13:56;14.72;79.47
62464;SHT31;48512;48.552;9.380;2022-10-31T09:16:21;14.84;78.86
62464;SHT31;48512;48.552;9.380;2022-10-31T09:18:46;14.89;78.47
62464;SHT31;48512;48.552;9.380;2022-10-31T09:21:12;14.99;78.15
62464;SHT31;48512;48.552;9.380;2022-10-31T09:23:37;15.05;77.98
62464;SHT31;48512;48.552;9.380;2022-10-31T09:26:02;15.10;77.72
62464;SHT31;48512;48.552;9.380;2022-10-31T09:28:28;15.18;77.35
62464;SHT31;48512;48.552;9.380;2022-10-31T09:30:54;15.27;77.01
62464;SHT31;48512;48.552;9.380;2022-10-31T09:33:19;15.42;76.99
62464;SHT31;48512;48.552;9.380;2022-10-31T09:35:45;15.53;76.57
62464;SHT31;48512;48.552;9.380;2022-10-31T09:40:39;15.71;75.94
62464;SHT31;48512;48.552;9.380;2022-10-31T09:50:29;16.02;73.97
62464;SHT31;48512;48.552;9.380;2022-10-31T09:53:02;16.13;73.37
62464;SHT31;48512;48.552;9.380;2022-10-31T09:55:35;16.39;73.07
62464;SHT31;48512;48.552;9.380;2022-10-31T09:58:01;16.55;73.37
62464;SHT31;48512;48.552;9.380;2022-10-31T10:00:27;16.61;73.06
62464;SHT31;48512;48.552;9.380;2022-10-31T10:03:07;16.76;72.40
62464;SHT31;48512;48.552;9.380;2022-10-31T10:05:49;16.98;71.25
62464;SHT31;48512;48.552;9.380;2022-10-31T10:08:18;17.00;71.16
62464;SHT31;48512;48.552;9.380;2022-10-31T10:10:55;17.14;70.83
62464;SHT31;48512;48.552;9.380;2022-10-31T10:26:21;18.02;67.87
62464;SHT31;48512;48.552;9.380;2022-10-31T10:28:51;18.02;67.09
62464;SHT31;48512;48.552;9.380;2022-10-31T10:31:20;18.01;67.11
62464;SHT31;48512;48.552;9.380;2022-10-31T10:33:55;18.18;66.74
62464;SHT31;48512;48.552;9.380;2022-10-31T10:36:42;18.29;66.68
62464;SHT31;48512;48.552;9.380;2022-10-31T10:41:50;18.37;66.87
62464;SHT31;48512;48.552;9.380;2022-10-31T10:44:38;18.37;66.87
62464;SHT31;48512;48.552;9.380;2022-10-31T10:47:23;18.48;66.58
62464;SHT31;48512;48.552;9.380;2022-10-31T10:50:02;18.60;65.76
62464;SHT31;48512;48.552;9.380;2022-10-31T11:00:21;19.00;64.12
62464;SHT31;48512;48.552;9.380;2022-10-31T11:02:47;19.23;63.72
62464;SHT31;48512;48.552;9.380;2022-10-31T11:05:15;19.79;62.41
62464;SHT31;48512;48.552;9.380;2022-10-31T11:07:43;20.26;61.59
62464;SHT31;48512;48.552;9.380;2022-10-31T11:10:11;20.63;60.72
62464;SHT31;48512;48.552;9.380;2022-10-31T11:12:39;21.00;59.44
62464;SHT31;48512;48.552;9.380;2022-10-31T11:15:17;21.13;59.67
62464;SHT31;48512;48.552;9.380;2022-10-31T11:17:47;21.39;58.40
62464;SHT31;48512;48.552;9.380;2022-10-31T11:22:38;22.15;56.40
62464;SHT31;48512;48.552;9.380;2022-10-31T11:27:44;21.78;55.82
62464;SHT31;48512;48.552;9.380;2022-10-31T11:30:11;21.49;56.98
62464;SHT31;48512;48.552;9.380;2022-10-31T11:32:37;21.58;57.27
62464;SHT31;48512;48.552;9.380;2022-10-31T11:35:09;21.88;56.67
62464;SHT31;48512;48.552;9.380;2022-10-31T11:37:39;21.68;56.56
62464;SHT31;48512;48.552;9.380;2022-10-31T11:40:05;22.22;56.35
62464;SHT31;48512;48.552;9.380;2022-10-31T11:42:38;22.53;55.18
62464;SHT31;48512;48.552;9.380;2022-10-31T11:45:06;22.40;55.91
62464;SHT31;48512;48.552;9.380;2022-10-31T11:47:37;23.02;54.96
62464;SHT31;48512;48.552;9.380;2022-10-31T11:50:15;23.57;54.08
62464;SHT31;48512;48.552;9.380;2022-10-31T11:52:43;23.90;53.41
62464;SHT31;48512;48.552;9.380;2022-10-31T11:57:44;24.31;52.42
62464;SHT31;48512;48.552;9.380;2022-10-31T12:00:21;24.26;52.88
62464;SHT31;48512;48.552;9.380;2022-10-31T12:02:46;24.36;52.42
62464;SHT31;48512;48.552;9.380;2022-10-31T12:05:22;24.77;51.87
62464;SHT31;48512;48.552;9.380;2022-10-31T12:07:48;25.31;51.24
62464;SHT31;48512;48.552;9.380;2022-10-31T12:10:14;25.83;50.01
62464;SHT31;48512;48.552;9.380;2022-10-31T12:12:49;26.10;48.09
62464;SHT31;48512;48.552;9.380;2022-10-31T12:28:01;23.80;52.68
62464;SHT31;48512;48.552;9.380;2022-10-31T12:30:30;23.21;53.79
62464;SHT31;48512;48.552;9.380;2022-10-31T12:35:50;22.56;54.85
62464;SHT31;48512;48.552;9.380;2022-10-31T12:46:00;21.99;58.10
62464;SHT31;48512;48.552;9.380;2022-10-31T12:51:14;21.74;57.56
62464;SHT31;48512;48.552;9.380;2022-10-31T13:01:16;21.10;58.21
62464;SHT31;48512;48.552;9.380;2022-10-31T13:03:51;21.14;59.31
62464;SHT31;48512;48.552;9.380;2022-10-31T13:06:19;21.26;59.48
62464;SHT31;48512;48.552;9.380;2022-10-31T13:08:52;21.16;59.41
62464;SHT31;48512;48.552;9.380;2022-10-31T13:11:21;21.07;59.75
62464;SHT31;48512;48.552;9.380;2022-10-31T13:16:15;21.05;59.33
62464;SHT31;48512;48.552;9.380;2022-10-31T13:18:52;20.74;59.35
62464;SHT31;48512;48.552;9.380;2022-10-31T13:21:26;20.85;59.89
62464;SHT31;48512;48.552;9.380;2022-10-31T13:23:52;20.71;60.75
62464;SHT31;48512;48.552;9.380;2022-10-31T13:26:37;20.91;60.28
62464;SHT31;48512;48.552;9.380;2022-10-31T13:31:43;20.89;60.29
62464;SHT31;48512;48.552;9.380;2022-10-31T13:34:11;20.82;59.01
62464;SHT31;48512;48.552;9.380;2022-10-31T13:36:42;21.24;58.72
62464;SHT31;48512;48.552;9.380;2022-10-31T13:39:21;21.33;58.45
62464;SHT31;48512;48.552;9.380;2022-10-31T13:41:51;21.40;58.58
62464;SHT31;48512;48.552;9.380;2022-10-31T13:44:22;21.41;58.29
62464;SHT31;48512;48.552;9.380;2022-10-31T13:46:51;21.57;58.15
62464;SHT31;48512;48.552;9.380;2022-10-31T13:49:21;21.70;58.56
62464;SHT31;48512;48.552;9.380;2022-10-31T13:51:48;21.41;59.12
62464;SHT31;48512;48.552;9.380;2022-10-31T13:54:30;21.55;59.25
62464;SHT31;48512;48.552;9.380;2022-10-31T13:56:56;21.82;60.60
62464;SHT31;48512;48.552;9.380;2022-10-31T13:59:22;22.05;61.00
62464;SHT31;48512;48.552;9.380;2022-10-31T14:01:49;22.18;59.97
62464;SHT31;48512;48.552;9.380;2022-10-31T14:04:20;22.49;59.36
62464;SHT31;48512;48.552;9.380;2022-10-31T14:11:55;23.35;55.99
62464;SHT31;48512;48.552;9.380;2022-10-31T14:14:22;23.80;54.87
62464;SHT31;48512;48.552;9.380;2022-10-31T14:16:52;22.98;56.05
62464;SHT31;48512;48.552;9.380;2022-10-31T14:19:19;23.67;55.22
62464;SHT31;48512;48.552;9.380;2022-10-31T14:21:49;24.05;54.15
62464;SHT31;48512;48.552;9.380;2022-10-31T14:31:43;24.42;53.71
62464;SHT31;48512;48.552;9.380;2022-10-31T14:34:23;24.47;53.46
62464;SHT31;48512;48.552;9.380;2022-10-31T14:39:21;24.47;53.16
62464;SHT31;48512;48.552;9.380;2022-10-31T14:44:29;24.36;53.17
62464;SHT31;48512;48.552;9.380;2022-10-31T14:51:50;24.05;53.99
62464;SHT31;48512;48.552;9.380;2022-10-31T14:54:35;24.04;54.98
62464;SHT31;48512;48.552;9.380;2022-10-31T14:57:04;24.22;54.71
62464;SHT31;48512;48.552;9.380;2022-10-31T14:59:30;24.26;54.59
62464;SHT31;48512;48.552;9.380;2022-10-31T15:01:57;23.97;55.26
62464;SHT31;48512;48.552;9.380;2022-10-31T15:04:25;23.57;56.05
62464;SHT31;48512;48.552;9.380;2022-10-31T15:06:52;23.23;56.70
62464;SHT31;48512;48.552;9.380;2022-10-31T15:11:47;22.29;59.29
62464;SHT31;48512;48.552;9.380;2022-10-31T15:14:28;21.91;60.49
62464;SHT31;48512;48.552;9.380;2022-10-31T15:16:55;21.46;61.60
62464;SHT31;48512;48.552;9.380;2022-10-31T15:19:23;21.09;62.57
62464;SHT31;48512;48.552;9.380;2022-10-31T15:21:50;20.88;63.24
62464;SHT31;48512;48.552;9.380;2022-10-31T15:24:15;20.57;64.27
62464;SHT31;48512;48.552;9.380;2022-10-31T15:26:44;20.00;65.66
62464;SHT31;48512;48.552;9.380;2022-10-31T15:29:11;19.71;66.58
62464;SHT31;48512;48.552;9.380;2022-10-31T15:31:37;19.51;67.15
62464;SHT31;48512;48.552;9.380;2022-10-31T15:34:07;19.42;67.45
62464;SHT31;48512;48.552;9.380;2022-10-31T15:36:37;19.13;68.78
62464;SHT31;48512;48.552;9.380;2022-10-31T15:39:03;18.87;69.38
62464;SHT31;48512;48.552;9.380;2022-10-31T15:41:29;18.60;70.15
62464;SHT31;48512;48.552;9.380;2022-10-31T15:43:57;18.52;70.16
62464;SHT31;48512;48.552;9.380;2022-10-31T15:46:25;18.24;70.72
62464;SHT31;48512;48.552;9.380;2022-10-31T15:48:52;17.93;71.44
62464;SHT31;48512;48.552;9.380;2022-10-31T15:51:24;17.73;71.86
62464;SHT31;48512;48.552;9.380;2022-10-31T15:53:50;17.74;71.90
62464;SHT31;48512;48.552;9.380;2022-10-31T15:56:20;17.66;72.19
62464;SHT31;48512;48.552;9.380;2022-10-31T15:58:47;17.54;72.60
62464;SHT31;48512;48.552;9.380;2022-10-31T16:01:27;17.32;72.94
62464;SHT31;48512;48.552;9.380;2022-10-31T16:04:00;17.10;73.51
62464;SHT31;48512;48.552;9.380;2022-10-31T16:06:25;16.78;74.00
62464;SHT31;48512;48.552;9.380;2022-10-31T16:08:51;16.55;74.52
62464;SHT31;48512;48.552;9.380;2022-10-31T16:11:29;16.30;75.05
62464;SHT31;48512;48.552;9.380;2022-10-31T16:13:57;16.11;75.44
62464;SHT31;48512;48.552;9.380;2022-10-31T16:16:23;16.04;75.70
62464;SHT31;48512;48.552;9.380;2022-10-31T16:18:49;16.09;75.64
62464;SHT31;48512;48.552;9.380;2022-10-31T16:21:15;16.01;75.59
62464;SHT31;48512;48.552;9.380;2022-10-31T16:23:44;15.98;75.41
62464;SHT31;48512;48.552;9.380;2022-10-31T16:26:10;15.85;75.56
62464;SHT31;48512;48.552;9.380;2022-10-31T16:28:39;15.85;75.57
62464;SHT31;48512;48.552;9.380;2022-10-31T16:31:12;15.94;75.29
62464;SHT31;48512;48.552;9.380;2022-10-31T16:33:37;15.98;75.40
62464;SHT31;48512;48.552;9.380;2022-10-31T16:38:49;15.58;76.32
62464;SHT31;48512;48.552;9.380;2022-10-31T16:41:14;15.35;76.85
62464;SHT31;48512;48.552;9.380;2022-10-31T16:43:39;14.98;77.96
62464;SHT31;48512;48.552;9.380;2022-10-31T16:46:05;14.98;78.24
62464;SHT31;48512;48.552;9.380;2022-10-31T16:48:30;14.88;78.34
62464;SHT31;48512;48.552;9.380;2022-10-31T16:50:55;14.81;78.41
62464;SHT31;48512;48.552;9.380;2022-10-31T16:53:20;14.72;78.47
62464;SHT31;48512;48.552;9.380;2022-10-31T16:55:48;14.85;77.88
62464;SHT31;48512;48.552;9.380;2022-10-31T16:58:16;15.22;78.40
62464;SHT31;48512;48.552;9.380;2022-10-31T17:00:42;16.01;76.12
62464;SHT31;48512;48.552;9.380;2022-10-31T17:03:07;15.58;74.37
62464;SHT31;48512;48.552;9.380;2022-10-31T17:05:33;15.35;74.79
62464;SHT31;48512;48.552;9.380;2022-10-31T17:07:59;15.25;74.91
62464;SHT31;48512;48.552;9.380;2022-10-31T17:10:25;14.87;75.69
62464;SHT31;48512;48.552;9.380;2022-10-31T17:12:50;14.52;76.61
62464;SHT31;48512;48.552;9.380;2022-10-31T17:15:20;14.31;77.15
62464;SHT31;48512;48.552;9.380;2022-10-31T17:17:46;14.37;77.09
62464;SHT31;48512;48.552;9.380;2022-10-31T17:20:16;14.37;77.02
62464;SHT31;48512;48.552;9.380;2022-10-31T17:22:42;14.09;77.69
62464;SHT31;48512;48.552;9.380;2022-10-31T17:25:08;13.90;78.20
62464;SHT31;48512;48.552;9.380;2022-10-31T17:27:35;13.69;78.89
62464;SHT31;48512;48.552;9.380;2022-10-31T17:30:01;13.58;79.04
62464;SHT31;48512;48.552;9.380;2022-10-31T17:32:26;13.47;79.29
62464;SHT31;48512;48.552;9.380;2022-10-31T17:34:51;13.43;79.01
62464;SHT31;48512;48.552;9.380;2022-10-31T17:37:17;13.28;79.58
62464;SHT31;48512;48.552;9.380;2022-10-31T17:39:42;13.26;79.67
62464;SHT31;48512;48.552;9.380;2022-10-31T17:42:07;13.33;79.61
62464;SHT31;48512;48.552;9.380;2022-10-31T17:44:32;13.36;79.51
62464;SHT31;48512;48.552;9.380;2022-10-31T17:46:58;13.44;79.19
62464;SHT31;48512;48.552;9.380;2022-10-31T17:49:23;13.24;79.61
62464;SHT31;48512;48.552;9.380;2022-10-31T17:51:48;13.30;79.45
62464;SHT31;48512;48.552;9.380;2022-10-31T17:54:14;13.40;78.69
62464;SHT31;48512;48.552;9.380;2022-10-31T17:56:42;13.44;78.68